sensor_id;sensor_type;location;lat;lon;timestamp;pressure;altitude;pressure_sealevel;temperature;humidity
45050;BME280;61798;48.048;-1.928;2023-01-27T00:00:23;101859.03;;;2.88;100.00
45050;BME280;61798;48.048;-1.928;2023-01-27T00:02:42;101905.69;;;3.26;100.00
45050;BME280;61798;48.048;-1.928;2023-01-27T00:04:52;101894.84;;;3.18;100.00
45050;BME280;61798;48.048;-1.928;2023-01-27T00:07:00;101893.78;;;3.21;100.00
45050;BME280;61798;48.048;-1.928;2023-01-27T00:09:10;101952.34;;;3.54;100.00
45050;BME280;61798;48.048;-1.928;2023-01-27T00:11:39;101948.00;;;3.53;100.00
45050;BME280;61798;48.048;-1.928;2023-01-27T00:14:22;101851.59;;;2.93;100.00
45050;BME280;61798;48.048;-1.928;2023-01-27T00:16:34;101961.53;;;3.61;100.00
45050;BME280;61798;48.048;-1.928;2023-01-27T00:18:46;101905.38;;;3.31;100.00
45050;BME280;61798;48.048;-1.928;2023-01-27T00:21:12;101963.13;;;3.64;100.00
45050;BME280;61798;48.048;-1.928;2023-01-27T00:23:40;101946.53;;;3.73;100.00
45050;BME280;61798;48.048;-1.928;2023-01-27T00:26:14;101941.47;;;3.70;100.00
45050;BME280;61798;48.048;-1.928;2023-01-27T00:28:24;101927.69;;;3.65;100.00
45050;BME280;61798;48.048;-1.928;2023-01-27T00:30:51;101946.28;;;3.76;100.00
45050;BME280;61798;48.048;-1.928;2023-01-27T00:33:09;101946.06;;;3.79;100.00
45050;BME280;61798;48.048;-1.928;2023-01-27T00:35:38;101944.50;;;3.77;100.00
45050;BME280;61798;48.048;-1.928;2023-01-27T00:37:49;101954.34;;;3.75;100.00
45050;BME280;61798;48.048;-1.928;2023-01-27T00:40:04;101946.53;;;3.73;100.00
45050;BME280;61798;48.048;-1.928;2023-01-27T00:42:21;101879.09;;;3.28;100.00
45050;BME280;61798;48.048;-1.928;2023-01-27T00:44:29;101883.56;;;3.27;100.00
45050;BME280;61798;48.048;-1.928;2023-01-27T00:46:40;101920.13;;;3.47;100.00
45050;BME280;61798;48.048;-1.928;2023-01-27T00:49:00;101949.75;;;3.65;100.00
45050;BME280;61798;48.048;-1.928;2023-01-27T00:51:11;101921.84;;;3.48;100.00
45050;BME280;61798;48.048;-1.928;2023-01-27T00:53:23;101957.81;;;3.64;100.00
45050;BME280;61798;48.048;-1.928;2023-01-27T00:55:47;101919.66;;;3.42;100.00
45050;BME280;61798;48.048;-1.928;2023-01-27T00:58:22;101958.56;;;3.66;100.00
45050;BME280;61798;48.048;-1.928;2023-01-27T01:00:47;101918.66;;;3.43;100.00
45050;BME280;61798;48.048;-1.928;2023-01-27T01:02:58;101907.91;;;3.33;100.00
45050;BME280;61798;48.048;-1.928;2023-01-27T01:05:20;101906.22;;;3.32;100.00
45050;BME280;61798;48.048;-1.928;2023-01-27T01:07:30;101955.28;;;3.62;100.00
45050;BME280;61798;48.048;-1.928;2023-01-27T01:09:42;101906.44;;;3.28;100.00
45050;BME280;61798;48.048;-1.928;2023-01-27T01:12:14;101895.84;;;3.28;100.00
45050;BME280;61798;48.048;-1.928;2023-01-27T01:14:29;101949.13;;;3.62;100.00
45050;BME280;61798;48.048;-1.928;2023-01-27T01:17:18;101877.50;;;3.14;100.00
45050;BME280;61798;48.048;-1.928;2023-01-27T01:19:45;101899.69;;;3.24;100.00
45050;BME280;61798;48.048;-1.928;2023-01-27T01:22:17;101911.75;;;3.28;100.00
45050;BME280;61798;48.048;-1.928;2023-01-27T01:24:54;101975.75;;;3.60;100.00
45050;BME280;61798;48.048;-1.928;2023-01-27T01:27:25;101883.44;;;3.04;100.00
45050;BME280;61798;48.048;-1.928;2023-01-27T01:30:10;101931.78;;;3.33;100.00
45050;BME280;61798;48.048;-1.928;2023-01-27T01:33:03;101932.28;;;3.38;100.00
45050;BME280;61798;48.048;-1.928;2023-01-27T01:36:21;101881.59;;;2.93;100.00
45050;BME280;61798;48.048;-1.928;2023-01-27T01:39:17;101853.97;;;2.84;100.00
45050;BME280;61798;48.048;-1.928;2023-01-27T01:41:44;101917.28;;;3.25;100.00
45050;BME280;61798;48.048;-1.928;2023-01-27T01:44:43;101964.00;;;3.51;100.00
45050;BME280;61798;48.048;-1.928;2023-01-27T01:47:34;101978.13;;;3.52;100.00
45050;BME280;61798;48.048;-1.928;2023-01-27T01:50:46;101953.50;;;3.38;100.00
45050;BME280;61798;48.048;-1.928;2023-01-27T01:53:25;101977.06;;;3.54;100.00
45050;BME280;61798;48.048;-1.928;2023-01-27T02:00:02;101967.75;;;3.48;100.00
45050;BME280;61798;48.048;-1.928;2023-01-27T02:03:09;101957.88;;;3.51;100.00
45050;BME280;61798;48.048;-1.928;2023-01-27T02:10:04;101856.59;;;2.84;100.00
45050;BME280;61798;48.048;-1.928;2023-01-27T02:16:54;101969.66;;;3.46;100.00
45050;BME280;61798;48.048;-1.928;2023-01-27T02:20:33;101950.16;;;3.47;100.00
45050;BME280;61798;48.048;-1.928;2023-01-27T02:25:46;101908.09;;;3.18;100.00
45050;BME280;61798;48.048;-1.928;2023-01-27T02:28:01;101908.19;;;3.16;100.00
45050;BME280;61798;48.048;-1.928;2023-01-27T02:30:14;101883.06;;;2.98;100.00
45050;BME280;61798;48.048;-1.928;2023-01-27T02:32:53;101909.75;;;3.19;100.00
45050;BME280;61798;48.048;-1.928;2023-01-27T02:35:40;101950.16;;;3.47;100.00
45050;BME280;61798;48.048;-1.928;2023-01-27T02:38:39;101901.81;;;3.19;100.00
45050;BME280;61798;48.048;-1.928;2023-01-27T02:41:14;101882.72;;;3.02;100.00
45050;BME280;61798;48.048;-1.928;2023-01-27T02:43:41;101895.28;;;3.12;100.00
45050;BME280;61798;48.048;-1.928;2023-01-27T02:45:57;101889.03;;;3.13;100.00
45050;BME280;61798;48.048;-1.928;2023-01-27T02:48:05;101939.16;;;3.41;100.00
45050;BME280;61798;48.048;-1.928;2023-01-27T02:50:32;101892.88;;;3.09;100.00
45050;BME280;61798;48.048;-1.928;2023-01-27T02:53:13;101903.00;;;3.15;100.00
45050;BME280;61798;48.048;-1.928;2023-01-27T02:55:43;101868.63;;;3.02;100.00
45050;BME280;61798;48.048;-1.928;2023-01-27T02:58:08;101864.19;;;3.02;100.00
45050;BME280;61798;48.048;-1.928;2023-01-27T03:00:56;101860.69;;;3.02;100.00
45050;BME280;61798;48.048;-1.928;2023-01-27T03:03:56;101874.22;;;3.10;100.00
45050;BME280;61798;48.048;-1.928;2023-01-27T03:06:48;101841.97;;;2.92;100.00
45050;BME280;61798;48.048;-1.928;2023-01-27T03:09:30;101879.28;;;3.13;100.00
45050;BME280;61798;48.048;-1.928;2023-01-27T03:15:42;101892.91;;;3.20;100.00
45050;BME280;61798;48.048;-1.928;2023-01-27T03:19:07;101828.88;;;2.77;100.00
45050;BME280;61798;48.048;-1.928;2023-01-27T03:22:27;101838.81;;;2.87;100.00
45050;BME280;61798;48.048;-1.928;2023-01-27T03:24:55;101904.94;;;3.37;100.00
45050;BME280;61798;48.048;-1.928;2023-01-27T03:28:07;101926.06;;;3.51;100.00
45050;BME280;61798;48.048;-1.928;2023-01-27T03:31:34;101844.91;;;3.00;100.00
45050;BME280;61798;48.048;-1.928;2023-01-27T03:34:51;101852.41;;;3.06;100.00
45050;BME280;61798;48.048;-1.928;2023-01-27T03:38:00;101846.03;;;3.09;100.00
45050;BME280;61798;48.048;-1.928;2023-01-27T03:40:43;101915.34;;;3.52;100.00
45050;BME280;61798;48.048;-1.928;2023-01-27T03:43:28;101856.78;;;3.19;100.00
45050;BME280;61798;48.048;-1.928;2023-01-27T03:46:04;101911.50;;;3.56;100.00
45050;BME280;61798;48.048;-1.928;2023-01-27T03:48:36;101840.97;;;3.06;100.00
45050;BME280;61798;48.048;-1.928;2023-01-27T03:50:48;101913.31;;;3.56;100.00
45050;BME280;61798;48.048;-1.928;2023-01-27T03:53:08;101893.63;;;3.47;100.00
45050;BME280;61798;48.048;-1.928;2023-01-27T03:55:24;101832.78;;;3.09;100.00
45050;BME280;61798;48.048;-1.928;2023-01-27T04:02:13;101877.06;;;3.32;100.00
45050;BME280;61798;48.048;-1.928;2023-01-27T04:05:15;101795.16;;;2.92;100.00
45050;BME280;61798;48.048;-1.928;2023-01-27T04:08:37;101856.00;;;3.30;100.00
45050;BME280;61798;48.048;-1.928;2023-01-27T04:11:22;101820.22;;;3.00;100.00
45050;BME280;61798;48.048;-1.928;2023-01-27T04:14:13;101862.38;;;3.27;100.00
45050;BME280;61798;48.048;-1.928;2023-01-27T04:16:47;101898.72;;;3.50;100.00
45050;BME280;61798;48.048;-1.928;2023-01-27T04:20:06;101851.28;;;3.22;100.00
45050;BME280;61798;48.048;-1.928;2023-01-27T04:22:42;101833.06;;;3.17;100.00
45050;BME280;61798;48.048;-1.928;2023-01-27T04:25:27;101891.34;;;3.42;100.00
45050;BME280;61798;48.048;-1.928;2023-01-27T04:27:48;101891.34;;;3.42;100.00
45050;BME280;61798;48.048;-1.928;2023-01-27T04:30:13;101892.41;;;3.40;100.00
45050;BME280;61798;48.048;-1.928;2023-01-27T04:32:37;101894.22;;;3.39;100.00
45050;BME280;61798;48.048;-1.928;2023-01-27T04:35:01;101854.13;;;3.19;100.00
45050;BME280;61798;48.048;-1.928;2023-01-27T04:37:14;101881.19;;;3.36;100.00
45050;BME280;61798;48.048;-1.928;2023-01-27T04:39:26;101875.78;;;3.37;100.00
45050;BME280;61798;48.048;-1.928;2023-01-27T04:41:39;101795.03;;;2.94;100.00
45050;BME280;61798;48.048;-1.928;2023-01-27T04:43:51;101811.66;;;2.96;100.00
45050;BME280;61798;48.048;-1.928;2023-01-27T04:46:00;101846.69;;;3.24;100.00
45050;BME280;61798;48.048;-1.928;2023-01-27T04:48:07;101811.66;;;2.96;100.00
45050;BME280;61798;48.048;-1.928;2023-01-27T04:50:17;101818.75;;;2.95;100.00
45050;BME280;61798;48.048;-1.928;2023-01-27T04:52:29;101861.38;;;3.17;100.00
45050;BME280;61798;48.048;-1.928;2023-01-27T04:54:40;101830.47;;;3.04;100.00
45050;BME280;61798;48.048;-1.928;2023-01-27T04:57:00;101826.25;;;3.02;100.00
45050;BME280;61798;48.048;-1.928;2023-01-27T04:59:13;101812.72;;;2.93;100.00
45050;BME280;61798;48.048;-1.928;2023-01-27T05:01:25;101822.00;;;2.99;100.00
45050;BME280;61798;48.048;-1.928;2023-01-27T05:03:37;101806.63;;;2.80;100.00
45050;BME280;61798;48.048;-1.928;2023-01-27T05:05:51;101854.84;;;3.10;100.00
45050;BME280;61798;48.048;-1.928;2023-01-27T05:08:17;101829.06;;;2.87;100.00
45050;BME280;61798;48.048;-1.928;2023-01-27T05:10:43;101853.38;;;3.05;100.00
45050;BME280;61798;48.048;-1.928;2023-01-27T05:12:54;101817.22;;;2.80;100.00
45050;BME280;61798;48.048;-1.928;2023-01-27T05:15:02;101828.03;;;2.77;100.00
45050;BME280;61798;48.048;-1.928;2023-01-27T05:17:10;101787.31;;;2.66;100.00
45050;BME280;61798;48.048;-1.928;2023-01-27T05:19:22;101816.44;;;2.66;100.00
45050;BME280;61798;48.048;-1.928;2023-01-27T05:21:42;101843.69;;;2.80;100.00
45050;BME280;61798;48.048;-1.928;2023-01-27T05:24:08;101817.50;;;2.63;100.00
45050;BME280;61798;48.048;-1.928;2023-01-27T05:26:23;101806.41;;;2.58;100.00
45050;BME280;61798;48.048;-1.928;2023-01-27T05:29:05;101800.69;;;2.51;100.00
45050;BME280;61798;48.048;-1.928;2023-01-27T05:31:54;101765.53;;;2.25;100.00
45050;BME280;61798;48.048;-1.928;2023-01-27T05:35:10;101801.25;;;2.43;100.00
45050;BME280;61798;48.048;-1.928;2023-01-27T05:37:51;101823.63;;;2.64;100.00
45050;BME280;61798;48.048;-1.928;2023-01-27T05:40:27;101845.50;;;2.79;100.00
45050;BME280;61798;48.048;-1.928;2023-01-27T05:43:13;101803.16;;;2.41;100.00
45050;BME280;61798;48.048;-1.928;2023-01-27T05:46:16;101781.78;;;2.31;100.00
45050;BME280;61798;48.048;-1.928;2023-01-27T05:49:01;101799.03;;;2.37;100.00
45050;BME280;61798;48.048;-1.928;2023-01-27T05:51:33;101806.97;;;2.37;100.00
45050;BME280;61798;48.048;-1.928;2023-01-27T05:53:52;101807.16;;;2.47;100.00
45050;BME280;61798;48.048;-1.928;2023-01-27T05:56:15;101833.59;;;2.60;100.00
45050;BME280;61798;48.048;-1.928;2023-01-27T05:58:36;101840.81;;;2.58;100.00
45050;BME280;61798;48.048;-1.928;2023-01-27T06:00:47;101863.09;;;2.80;100.00
45050;BME280;61798;48.048;-1.928;2023-01-27T06:03:15;101865.19;;;2.75;100.00
45050;BME280;61798;48.048;-1.928;2023-01-27T06:05:56;101761.31;;;2.09;100.00
45050;BME280;61798;48.048;-1.928;2023-01-27T06:08:12;101874.13;;;2.74;100.00
45050;BME280;61798;48.048;-1.928;2023-01-27T06:10:25;101823.47;;;2.41;100.00
45050;BME280;61798;48.048;-1.928;2023-01-27T06:12:38;101802.88;;;2.20;100.00
45050;BME280;61798;48.048;-1.928;2023-01-27T06:14:51;101826.84;;;2.43;100.00
45050;BME280;61798;48.048;-1.928;2023-01-27T06:17:02;101857.13;;;2.52;100.00
45050;BME280;61798;48.048;-1.928;2023-01-27T06:19:16;101784.38;;;2.20;100.00
45050;BME280;61798;48.048;-1.928;2023-01-27T06:21:30;101811.13;;;2.28;100.00
45050;BME280;61798;48.048;-1.928;2023-01-27T06:23:43;101744.66;;;1.82;100.00
45050;BME280;61798;48.048;-1.928;2023-01-27T06:25:54;101784.50;;;1.92;100.00
45050;BME280;61798;48.048;-1.928;2023-01-27T06:28:12;101875.78;;;2.37;100.00
45050;BME280;61798;48.048;-1.928;2023-01-27T06:36:59;101814.44;;;2.06;100.00
45050;BME280;61798;48.048;-1.928;2023-01-27T06:41:03;101873.03;;;2.39;100.00
45050;BME280;61798;48.048;-1.928;2023-01-27T06:44:50;101810.94;;;1.92;100.00
45050;BME280;61798;48.048;-1.928;2023-01-27T07:36:25;101817.72;;;1.96;100.00
45050;BME280;61798;48.048;-1.928;2023-01-27T08:03:51;101871.56;;;2.35;100.00
45050;BME280;61798;48.048;-1.928;2023-01-27T08:39:27;101784.00;;;1.87;100.00
45050;BME280;61798;48.048;-1.928;2023-01-27T09:11:12;101844.81;;;2.51;100.00
45050;BME280;61798;48.048;-1.928;2023-01-27T09:23:00;101815.84;;;2.49;100.00
45050;BME280;61798;48.048;-1.928;2023-01-27T09:26:14;101865.22;;;3.00;100.00
45050;BME280;61798;48.048;-1.928;2023-01-27T09:29:12;101869.63;;;2.88;100.00
45050;BME280;61798;48.048;-1.928;2023-01-27T09:32:10;101809.34;;;2.67;100.00
45050;BME280;61798;48.048;-1.928;2023-01-27T09:35:35;101778.16;;;2.59;100.00
45050;BME280;61798;48.048;-1.928;2023-01-27T10:44:28;101860.28;;;4.04;100.00
45050;BME280;61798;48.048;-1.928;2023-01-27T10:48:22;101783.16;;;3.47;100.00
45050;BME280;61798;48.048;-1.928;2023-01-27T10:55:02;101775.03;;;3.85;100.00
45050;BME280;61798;48.048;-1.928;2023-01-27T11:12:46;101758.50;;;4.28;100.00
45050;BME280;61798;48.048;-1.928;2023-01-27T11:29:30;101718.16;;;3.89;100.00
45050;BME280;61798;48.048;-1.928;2023-01-27T11:47:06;101730.16;;;4.28;100.00
45050;BME280;61798;48.048;-1.928;2023-01-27T11:49:49;101727.84;;;4.35;100.00
45050;BME280;61798;48.048;-1.928;2023-01-27T11:56:50;101690.16;;;3.97;100.00
45050;BME280;61798;48.048;-1.928;2023-01-27T12:00:34;101791.94;;;4.75;100.00
45050;BME280;61798;48.048;-1.928;2023-01-27T12:08:09;101792.69;;;4.65;100.00
45050;BME280;61798;48.048;-1.928;2023-01-27T12:15:03;101776.28;;;4.60;100.00
45050;BME280;61798;48.048;-1.928;2023-01-27T12:18:32;101771.56;;;4.64;100.00
45050;BME280;61798;48.048;-1.928;2023-01-27T12:21:55;101725.41;;;4.43;100.00
45050;BME280;61798;48.048;-1.928;2023-01-27T12:25:47;101770.06;;;4.83;100.00
45050;BME280;61798;48.048;-1.928;2023-01-27T12:32:43;101764.47;;;4.86;100.00
45050;BME280;61798;48.048;-1.928;2023-01-27T12:35:40;101726.44;;;4.64;100.00
45050;BME280;61798;48.048;-1.928;2023-01-27T12:39:34;101764.00;;;4.92;100.00
45050;BME280;61798;48.048;-1.928;2023-01-27T12:42:47;101774.53;;;4.82;100.00
45050;BME280;61798;48.048;-1.928;2023-01-27T12:45:33;101765.00;;;4.80;100.00
45050;BME280;61798;48.048;-1.928;2023-01-27T12:50:32;101663.34;;;4.23;100.00
45050;BME280;61798;48.048;-1.928;2023-01-27T12:53:19;101711.72;;;4.60;100.00
45050;BME280;61798;48.048;-1.928;2023-01-27T12:56:25;101714.03;;;4.53;100.00
45050;BME280;61798;48.048;-1.928;2023-01-27T12:58:57;101751.09;;;4.88;100.00
45050;BME280;61798;48.048;-1.928;2023-01-27T13:01:33;101702.25;;;4.34;100.00
45050;BME280;61798;48.048;-1.928;2023-01-27T13:04:05;101760.38;;;4.82;100.00
45050;BME280;61798;48.048;-1.928;2023-01-27T13:06:37;101678.53;;;4.21;100.00
45050;BME280;61798;48.048;-1.928;2023-01-27T13:12:26;101721.88;;;4.54;100.00
45050;BME280;61798;48.048;-1.928;2023-01-27T13:15:21;101683.69;;;4.34;100.00
45050;BME280;61798;48.048;-1.928;2023-01-27T13:17:51;101750.06;;;4.67;100.00
45050;BME280;61798;48.048;-1.928;2023-01-27T13:20:49;101706.22;;;4.40;100.00
45050;BME280;61798;48.048;-1.928;2023-01-27T13:23:26;101713.69;;;4.46;100.00
45050;BME280;61798;48.048;-1.928;2023-01-27T13:26:33;101734.88;;;4.69;100.00
45050;BME280;61798;48.048;-1.928;2023-01-27T13:33:02;101662.78;;;4.08;100.00
45050;BME280;61798;48.048;-1.928;2023-01-27T14:11:49;101655.81;;;3.84;100.00
45050;BME280;61798;48.048;-1.928;2023-01-27T14:56:55;101741.34;;;4.76;100.00
45050;BME280;61798;48.048;-1.928;2023-01-27T15:00:12;101736.16;;;4.75;100.00
45050;BME280;61798;48.048;-1.928;2023-01-27T15:10:20;101755.72;;;4.74;100.00
45050;BME280;61798;48.048;-1.928;2023-01-27T15:13:32;101753.78;;;4.76;100.00
45050;BME280;61798;48.048;-1.928;2023-01-27T15:16:34;101763.56;;;4.75;100.00
45050;BME280;61798;48.048;-1.928;2023-01-27T15:19:18;101755.34;;;4.79;100.00
45050;BME280;61798;48.048;-1.928;2023-01-27T15:26:56;101725.75;;;4.50;100.00
45050;BME280;61798;48.048;-1.928;2023-01-27T15:29:15;101711.50;;;4.51;100.00
45050;BME280;61798;48.048;-1.928;2023-01-27T15:31:31;101699.47;;;4.36;100.00
45050;BME280;61798;48.048;-1.928;2023-01-27T15:36:37;101758.59;;;4.82;100.00
45050;BME280;61798;48.048;-1.928;2023-01-27T15:41:26;101726.91;;;4.69;100.00
45050;BME280;61798;48.048;-1.928;2023-01-27T15:43:40;101693.81;;;4.40;100.00
45050;BME280;61798;48.048;-1.928;2023-01-27T15:46:36;101730.03;;;4.63;100.00
45050;BME280;61798;48.048;-1.928;2023-01-27T15:49:02;101726.94;;;4.58;100.00
45050;BME280;61798;48.048;-1.928;2023-01-27T15:51:22;101698.78;;;4.33;100.00
45050;BME280;61798;48.048;-1.928;2023-01-27T15:53:48;101740.56;;;4.64;100.00
45050;BME280;61798;48.048;-1.928;2023-01-27T15:56:03;101770.06;;;4.83;100.00
45050;BME280;61798;48.048;-1.928;2023-01-27T15:58:44;101752.34;;;4.72;100.00
45050;BME280;61798;48.048;-1.928;2023-01-27T16:01:03;101727.75;;;4.58;100.00
45050;BME280;61798;48.048;-1.928;2023-01-27T16:03:30;101760.66;;;4.79;100.00
45050;BME280;61798;48.048;-1.928;2023-01-27T16:05:44;101703.06;;;4.46;100.00
45050;BME280;61798;48.048;-1.928;2023-01-27T16:07:59;101767.91;;;4.76;100.00
45050;BME280;61798;48.048;-1.928;2023-01-27T16:10:17;101763.34;;;4.67;100.00
45050;BME280;61798;48.048;-1.928;2023-01-27T16:12:41;101685.78;;;4.19;100.00
45050;BME280;61798;48.048;-1.928;2023-01-27T16:15:22;101696.63;;;4.16;100.00
45050;BME280;61798;48.048;-1.928;2023-01-27T16:17:54;101728.44;;;4.39;100.00
45050;BME280;61798;48.048;-1.928;2023-01-27T16:20:30;101756.53;;;4.53;100.00
45050;BME280;61798;48.048;-1.928;2023-01-27T16:22:43;101691.94;;;4.08;100.00
45050;BME280;61798;48.048;-1.928;2023-01-27T16:25:27;101720.25;;;4.19;100.00
45050;BME280;61798;48.048;-1.928;2023-01-27T16:27:54;101726.78;;;4.15;100.00
45050;BME280;61798;48.048;-1.928;2023-01-27T16:30:16;101801.41;;;4.56;100.00
45050;BME280;61798;48.048;-1.928;2023-01-27T16:32:39;101774.88;;;4.44;100.00
45050;BME280;61798;48.048;-1.928;2023-01-27T16:35:06;101769.34;;;4.36;100.00
45050;BME280;61798;48.048;-1.928;2023-01-27T16:37:47;101746.09;;;4.17;100.00
45050;BME280;61798;48.048;-1.928;2023-01-27T16:40:18;101735.50;;;4.05;100.00
45050;BME280;61798;48.048;-1.928;2023-01-27T16:42:44;101774.31;;;4.29;100.00
45050;BME280;61798;48.048;-1.928;2023-01-27T16:45:00;101752.13;;;4.07;100.00
45050;BME280;61798;48.048;-1.928;2023-01-27T16:49:34;101728.50;;;3.93;100.00
45050;BME280;61798;48.048;-1.928;2023-01-27T16:52:00;101803.25;;;4.32;100.00
45050;BME280;61798;48.048;-1.928;2023-01-27T16:54:41;101757.44;;;3.96;100.00
45050;BME280;61798;48.048;-1.928;2023-01-27T16:56:52;101756.13;;;3.90;100.00
45050;BME280;61798;48.048;-1.928;2023-01-27T16:59:04;101755.97;;;3.91;100.00
45050;BME280;61798;48.048;-1.928;2023-01-27T17:01:40;101732.13;;;3.68;100.00
45050;BME280;61798;48.048;-1.928;2023-01-27T17:03:55;101769.25;;;3.91;100.00
45050;BME280;61798;48.048;-1.928;2023-01-27T17:06:14;101788.16;;;3.98;100.00
45050;BME280;61798;48.048;-1.928;2023-01-27T17:08:30;101794.09;;;4.02;100.00
45050;BME280;61798;48.048;-1.928;2023-01-27T17:10:57;101799.50;;;4.00;100.00
45050;BME280;61798;48.048;-1.928;2023-01-27T17:13:41;101795.91;;;3.90;100.00
45050;BME280;61798;48.048;-1.928;2023-01-27T17:16:43;101777.44;;;3.77;100.00
45050;BME280;61798;48.048;-1.928;2023-01-27T17:19:35;101813.72;;;3.99;100.00
45050;BME280;61798;48.048;-1.928;2023-01-27T17:22:45;101734.00;;;3.43;100.00
45050;BME280;61798;48.048;-1.928;2023-01-27T17:25:30;101781.03;;;3.64;100.00
45050;BME280;61798;48.048;-1.928;2023-01-27T17:28:26;101733.88;;;3.33;100.00
45050;BME280;61798;48.048;-1.928;2023-01-27T17:30:50;101805.66;;;3.78;100.00
45050;BME280;61798;48.048;-1.928;2023-01-27T17:33:20;101770.19;;;3.56;100.00
45050;BME280;61798;48.048;-1.928;2023-01-27T17:36:14;101826.50;;;3.94;100.00
45050;BME280;61798;48.048;-1.928;2023-01-27T17:39:25;101788.03;;;3.65;100.00
45050;BME280;61798;48.048;-1.928;2023-01-27T17:42:16;101776.41;;;3.43;100.00
45050;BME280;61798;48.048;-1.928;2023-01-27T17:45:18;101791.41;;;3.67;100.00
45050;BME280;61798;48.048;-1.928;2023-01-27T17:48:03;101847.63;;;3.96;100.00
45050;BME280;61798;48.048;-1.928;2023-01-27T17:50:48;101835.53;;;3.80;100.00
45050;BME280;61798;48.048;-1.928;2023-01-27T17:53:39;101795.84;;;3.55;100.00
45050;BME280;61798;48.048;-1.928;2023-01-27T17:56:26;101789.66;;;3.43;100.00
45050;BME280;61798;48.048;-1.928;2023-01-27T17:58:47;101782.28;;;3.35;100.00
45050;BME280;61798;48.048;-1.928;2023-01-27T18:01:31;101766.59;;;3.21;100.00
45050;BME280;61798;48.048;-1.928;2023-01-27T18:04:06;101861.19;;;3.79;100.00
45050;BME280;61798;48.048;-1.928;2023-01-27T18:06:43;101827.28;;;3.48;100.00
45050;BME280;61798;48.048;-1.928;2023-01-27T18:09:31;101852.25;;;3.57;100.00
45050;BME280;61798;48.048;-1.928;2023-01-27T18:12:27;101783.34;;;3.21;100.00
45050;BME280;61798;48.048;-1.928;2023-01-27T18:14:42;101831.81;;;3.46;100.00
45050;BME280;61798;48.048;-1.928;2023-01-27T18:17:27;101809.88;;;3.33;100.00
45050;BME280;61798;48.048;-1.928;2023-01-27T18:20:27;101806.56;;;3.42;100.00
45050;BME280;61798;48.048;-1.928;2023-01-27T18:23:25;101870.50;;;3.85;100.00
45050;BME280;61798;48.048;-1.928;2023-01-27T18:26:39;101823.19;;;3.56;100.00
45050;BME280;61798;48.048;-1.928;2023-01-27T18:29:26;101771.06;;;3.20;100.00
45050;BME280;61798;48.048;-1.928;2023-01-27T18:34:31;101864.97;;;3.88;100.00
45050;BME280;61798;48.048;-1.928;2023-01-27T18:37:04;101828.31;;;3.82;100.00
45050;BME280;61798;48.048;-1.928;2023-01-27T18:39:39;101862.31;;;4.00;100.00
45050;BME280;61798;48.048;-1.928;2023-01-27T18:41:51;101794.50;;;3.49;100.00
45050;BME280;61798;48.048;-1.928;2023-01-27T18:44:08;101846.38;;;3.77;100.00
45050;BME280;61798;48.048;-1.928;2023-01-27T18:46:23;101754.00;;;3.36;100.00
45050;BME280;61798;48.048;-1.928;2023-01-27T18:48:42;101841.09;;;3.88;100.00
45050;BME280;61798;48.048;-1.928;2023-01-27T18:50:54;101818.78;;;3.79;100.00
45050;BME280;61798;48.048;-1.928;2023-01-27T18:53:14;101771.00;;;3.45;100.00
45050;BME280;61798;48.048;-1.928;2023-01-27T18:55:27;101826.63;;;3.81;100.00
45050;BME280;61798;48.048;-1.928;2023-01-27T18:57:35;101805.84;;;3.63;100.00
45050;BME280;61798;48.048;-1.928;2023-01-27T18:59:44;101786.91;;;3.45;100.00
45050;BME280;61798;48.048;-1.928;2023-01-27T19:01:55;101787.50;;;3.37;100.00
45050;BME280;61798;48.048;-1.928;2023-01-27T19:04:10;101800.97;;;3.34;100.00
45050;BME280;61798;48.048;-1.928;2023-01-27T19:06:38;101810.50;;;3.36;100.00
45050;BME280;61798;48.048;-1.928;2023-01-27T19:09:21;101832.34;;;3.52;100.00
45050;BME280;61798;48.048;-1.928;2023-01-27T19:11:30;101857.66;;;3.56;100.00
45050;BME280;61798;48.048;-1.928;2023-01-27T19:13:43;101825.88;;;3.31;100.00
45050;BME280;61798;48.048;-1.928;2023-01-27T19:15:56;101864.88;;;3.54;100.00
45050;BME280;61798;48.048;-1.928;2023-01-27T19:18:30;101875.50;;;3.54;100.00
45050;BME280;61798;48.048;-1.928;2023-01-27T19:21:11;101864.00;;;3.42;100.00
45050;BME280;61798;48.048;-1.928;2023-01-27T19:23:20;101862.63;;;3.36;100.00
45050;BME280;61798;48.048;-1.928;2023-01-27T19:25:36;101804.03;;;2.91;100.00
45050;BME280;61798;48.048;-1.928;2023-01-27T19:28:04;101834.34;;;3.12;100.00
45050;BME280;61798;48.048;-1.928;2023-01-27T19:30:32;101889.31;;;3.46;100.00
45050;BME280;61798;48.048;-1.928;2023-01-27T19:33:00;101813.41;;;2.84;100.00
45050;BME280;61798;48.048;-1.928;2023-01-27T19:35:34;101821.97;;;2.88;100.00
45050;BME280;61798;48.048;-1.928;2023-01-27T19:37:46;101835.19;;;2.88;100.00
45050;BME280;61798;48.048;-1.928;2023-01-27T19:39:56;101843.00;;;3.02;100.00
45050;BME280;61798;48.048;-1.928;2023-01-27T19:42:15;101896.38;;;3.34;100.00
45050;BME280;61798;48.048;-1.928;2023-01-27T19:44:24;101847.88;;;2.95;100.00
45050;BME280;61798;48.048;-1.928;2023-01-27T19:46:35;101882.50;;;3.05;100.00
45050;BME280;61798;48.048;-1.928;2023-01-27T19:48:50;101830.78;;;2.75;100.00
45050;BME280;61798;48.048;-1.928;2023-01-27T19:51:04;101908.34;;;3.26;100.00
45050;BME280;61798;48.048;-1.928;2023-01-27T19:53:43;101911.22;;;3.23;100.00
45050;BME280;61798;48.048;-1.928;2023-01-27T19:55:52;101903.47;;;3.09;100.00
45050;BME280;61798;48.048;-1.928;2023-01-27T19:58:00;101890.16;;;2.97;100.00
45050;BME280;61798;48.048;-1.928;2023-01-27T20:00:31;101842.06;;;2.66;100.00
45050;BME280;61798;48.048;-1.928;2023-01-27T20:02:40;101855.78;;;2.71;100.00
45050;BME280;61798;48.048;-1.928;2023-01-27T20:04:52;101880.97;;;2.90;100.00
45050;BME280;61798;48.048;-1.928;2023-01-27T20:07:01;101886.69;;;2.83;100.00
45050;BME280;61798;48.048;-1.928;2023-01-27T20:09:08;101853.16;;;2.71;100.00
45050;BME280;61798;48.048;-1.928;2023-01-27T20:11:42;101848.06;;;2.68;100.00